sensor_id;sensor_type;location;lat;lon;timestamp;P1;durP1;ratioP1;P2;durP2;ratioP2
19262;SDS011;9765;52.354;20.884;2022-08-01T04:14:00;6.20;;;2.93;;
19262;SDS011;9765;52.354;20.884;2022-08-01T04:16:28;3.20;;;2.67;;
19262;SDS011;9765;52.354;20.884;2022-08-01T04:18:55;4.87;;;3.13;;
19262;SDS011;9765;52.354;20.884;2022-08-01T04:21:23;5.90;;;3.20;;
19262;SDS011;9765;52.354;20.884;2022-08-01T04:23:52;4.30;;;3.20;;
19262;SDS011;9765;52.354;20.884;2022-08-01T04:26:21;3.00;;;2.37;;
19262;SDS011;9765;52.354;20.884;2022-08-01T04:28:49;3.10;;;2.20;;
19262;SDS011;9765;52.354;20.884;2022-08-01T04:31:21;4.40;;;3.27;;
19262;SDS011;9765;52.354;20.884;2022-08-01T04:33:51;6.83;;;3.23;;
19262;SDS011;9765;52.354;20.884;2022-08-01T04:36:22;4.83;;;2.63;;
19262;SDS011;9765;52.354;20.884;2022-08-01T04:38:52;8.67;;;3.40;;
19262;SDS011;9765;52.354;20.884;2022-08-01T04:41:22;5.07;;;3.23;;
19262;SDS011;9765;52.354;20.884;2022-08-01T04:43:50;3.97;;;3.43;;
19262;SDS011;9765;52.354;20.884;2022-08-01T04:46:20;5.00;;;2.90;;
19262;SDS011;9765;52.354;20.884;2022-08-01T04:48:48;6.63;;;3.47;;
19262;SDS011;9765;52.354;20.884;2022-08-01T04:51:16;6.20;;;3.60;;
19262;SDS011;9765;52.354;20.884;2022-08-01T04:53:46;5.60;;;4.00;;
19262;SDS011;9765;52.354;20.884;2022-08-01T04:56:15;6.10;;;3.93;;
19262;SDS011;9765;52.354;20.884;2022-08-01T04:58:44;5.77;;;3.90;;
19262;SDS011;9765;52.354;20.884;2022-08-01T05:01:10;5.60;;;4.67;;
19262;SDS011;9765;52.354;20.884;2022-08-01T05:03:39;12.87;;;5.57;;
19262;SDS011;9765;52.354;20.884;2022-08-01T05:06:06;9.07;;;4.60;;
19262;SDS011;9765;52.354;20.884;2022-08-01T05:08:32;12.03;;;6.27;;
19262;SDS011;9765;52.354;20.884;2022-08-01T05:10:59;12.33;;;6.13;;
19262;SDS011;9765;52.354;20.884;2022-08-01T05:13:27;7.40;;;4.63;;
19262;SDS011;9765;52.354;20.884;2022-08-01T05:15:53;11.07;;;5.07;;
19262;SDS011;9765;52.354;20.884;2022-08-01T05:18:20;9.33;;;5.90;;
19262;SDS011;9765;52.354;20.884;2022-08-01T05:20:49;15.23;;;6.20;;
19262;SDS011;9765;52.354;20.884;2022-08-01T05:23:15;11.63;;;5.60;;
19262;SDS011;9765;52.354;20.884;2022-08-01T05:25:42;14.10;;;5.67;;
19262;SDS011;9765;52.354;20.884;2022-08-01T05:28:09;10.20;;;4.97;;
19262;SDS011;9765;52.354;20.884;2022-08-01T05:30:36;10.63;;;5.63;;
19262;SDS011;9765;52.354;20.884;2022-08-01T05:33:04;9.40;;;5.70;;
19262;SDS011;9765;52.354;20.884;2022-08-01T05:35:31;10.77;;;6.27;;
19262;SDS011;9765;52.354;20.884;2022-08-01T05:37:59;8.83;;;4.97;;
19262;SDS011;9765;52.354;20.884;2022-08-01T05:40:25;7.83;;;5.20;;
19262;SDS011;9765;52.354;20.884;2022-08-01T05:42:52;6.93;;;5.20;;
19262;SDS011;9765;52.354;20.884;2022-08-01T05:45:19;7.47;;;5.10;;
19262;SDS011;9765;52.354;20.884;2022-08-01T05:47:45;7.10;;;4.30;;
19262;SDS011;9765;52.354;20.884;2022-08-01T05:50:12;9.03;;;5.30;;
19262;SDS011;9765;52.354;20.884;2022-08-01T05:52:39;8.87;;;4.80;;
19262;SDS011;9765;52.354;20.884;2022-08-01T05:55:07;9.73;;;4.77;;
19262;SDS011;9765;52.354;20.884;2022-08-01T05:57:35;7.87;;;4.43;;
19262;SDS011;9765;52.354;20.884;2022-08-01T06:00:02;8.67;;;4.30;;
19262;SDS011;9765;52.354;20.884;2022-08-01T06:02:29;6.83;;;3.90;;
19262;SDS011;9765;52.354;20.884;2022-08-01T06:04:55;6.97;;;4.23;;
19262;SDS011;9765;52.354;20.884;2022-08-01T06:07:22;9.00;;;4.20;;
19262;SDS011;9765;52.354;20.884;2022-08-01T06:09:49;7.03;;;4.10;;
19262;SDS011;9765;52.354;20.884;2022-08-01T06:12:17;17.57;;;4.27;;
19262;SDS011;9765;52.354;20.884;2022-08-01T06:14:43;8.87;;;4.30;;
19262;SDS011;9765;52.354;20.884;2022-08-01T06:17:10;5.93;;;3.87;;
19262;SDS011;9765;52.354;20.884;2022-08-01T06:19:37;8.17;;;3.50;;
19262;SDS011;9765;52.354;20.884;2022-08-01T06:22:03;6.03;;;3.50;;
19262;SDS011;9765;52.354;20.884;2022-08-01T06:24:30;6.23;;;3.40;;
19262;SDS011;9765;52.354;20.884;2022-08-01T06:26:57;7.47;;;3.33;;
19262;SDS011;9765;52.354;20.884;2022-08-01T06:29:25;4.40;;;3.47;;
19262;SDS011;9765;52.354;20.884;2022-08-01T06:31:51;7.73;;;3.23;;
19262;SDS011;9765;52.354;20.884;2022-08-01T06:34:18;4.60;;;3.20;;
19262;SDS011;9765;52.354;20.884;2022-08-01T06:36:45;5.20;;;3.17;;
19262;SDS011;9765;52.354;20.884;2022-08-01T06:39:12;7.00;;;3.23;;
19262;SDS011;9765;52.354;20.884;2022-08-01T06:41:39;6.43;;;3.00;;
19262;SDS011;9765;52.354;20.884;2022-08-01T06:44:06;4.03;;;2.77;;
19262;SDS011;9765;52.354;20.884;2022-08-01T06:46:34;4.63;;;2.77;;
19262;SDS011;9765;52.354;20.884;2022-08-01T06:49:01;8.27;;;2.87;;
19262;SDS011;9765;52.354;20.884;2022-08-01T06:51:27;6.70;;;3.07;;
19262;SDS011;9765;52.354;20.884;2022-08-01T06:53:54;3.40;;;2.40;;
19262;SDS011;9765;52.354;20.884;2022-08-01T06:56:20;6.03;;;2.60;;
19262;SDS011;9765;52.354;20.884;2022-08-01T06:58:48;10.17;;;3.03;;
19262;SDS011;9765;52.354;20.884;2022-08-01T07:01:15;5.90;;;2.13;;
19262;SDS011;9765;52.354;20.884;2022-08-01T07:03:43;4.33;;;2.20;;
19262;SDS011;9765;52.354;20.884;2022-08-01T07:06:09;4.43;;;2.30;;
19262;SDS011;9765;52.354;20.884;2022-08-01T07:08:36;5.53;;;2.20;;
19262;SDS011;9765;52.354;20.884;2022-08-01T07:11:03;6.07;;;2.63;;
19262;SDS011;9765;52.354;20.884;2022-08-01T07:13:29;4.50;;;2.57;;
19262;SDS011;9765;52.354;20.884;2022-08-01T07:15:57;8.37;;;2.07;;
19262;SDS011;9765;52.354;20.884;2022-08-01T07:18:24;6.33;;;2.00;;
19262;SDS011;9765;52.354;20.884;2022-08-01T07:20:52;5.00;;;2.00;;
19262;SDS011;9765;52.354;20.884;2022-08-01T07:23:18;7.03;;;1.90;;
19262;SDS011;9765;52.354;20.884;2022-08-01T07:25:45;4.53;;;1.70;;
19262;SDS011;9765;52.354;20.884;2022-08-01T07:28:13;6.23;;;1.90;;
19262;SDS011;9765;52.354;20.884;2022-08-01T07:30:40;2.77;;;1.63;;
19262;SDS011;9765;52.354;20.884;2022-08-01T07:33:09;6.37;;;1.90;;
19262;SDS011;9765;52.354;20.884;2022-08-01T07:35:36;4.93;;;2.00;;
19262;SDS011;9765;52.354;20.884;2022-08-01T07:38:05;4.40;;;1.73;;
19262;SDS011;9765;52.354;20.884;2022-08-01T07:40:32;4.70;;;1.60;;
19262;SDS011;9765;52.354;20.884;2022-08-01T07:42:59;2.13;;;1.40;;
19262;SDS011;9765;52.354;20.884;2022-08-01T07:45:26;8.83;;;1.80;;
19262;SDS011;9765;52.354;20.884;2022-08-01T07:47:52;2.13;;;1.40;;
19262;SDS011;9765;52.354;20.884;2022-08-01T07:50:19;3.50;;;1.60;;
19262;SDS011;9765;52.354;20.884;2022-08-01T07:52:46;4.77;;;1.60;;
19262;SDS011;9765;52.354;20.884;2022-08-01T07:55:14;5.57;;;1.83;;
19262;SDS011;9765;52.354;20.884;2022-08-01T07:57:40;3.57;;;1.60;;
19262;SDS011;9765;52.354;20.884;2022-08-01T08:00:07;5.20;;;1.63;;
19262;SDS011;9765;52.354;20.884;2022-08-01T08:02:34;4.60;;;2.13;;
19262;SDS011;9765;52.354;20.884;2022-08-01T08:05:01;5.37;;;1.90;;
19262;SDS011;9765;52.354;20.884;2022-08-01T08:07:28;2.13;;;1.60;;
19262;SDS011;9765;52.354;20.884;2022-08-01T08:09:55;5.60;;;1.50;;
19262;SDS011;9765;52.354;20.884;2022-08-01T08:12:23;8.10;;;1.70;;
19262;SDS011;9765;52.354;20.884;2022-08-01T08:14:50;8.73;;;1.80;;
19262;SDS011;9765;52.354;20.884;2022-08-01T08:17:17;6.97;;;1.77;;
19262;SDS011;9765;52.354;20.884;2022-08-01T08:19:43;4.50;;;1.60;;
19262;SDS011;9765;52.354;20.884;2022-08-01T08:22:10;5.53;;;1.67;;
19262;SDS011;9765;52.354;20.884;2022-08-01T08:24:37;1.83;;;1.40;;
19262;SDS011;9765;52.354;20.884;2022-08-01T08:27:04;5.40;;;1.70;;
19262;SDS011;9765;52.354;20.884;2022-08-01T08:29:32;4.47;;;1.40;;
19262;SDS011;9765;52.354;20.884;2022-08-01T08:31:59;7.60;;;1.33;;
19262;SDS011;9765;52.354;20.884;2022-08-01T08:34:27;4.40;;;1.67;;
19262;SDS011;9765;52.354;20.884;2022-08-01T08:36:55;2.40;;;1.50;;
19262;SDS011;9765;52.354;20.884;2022-08-01T08:39:22;4.53;;;1.63;;
19262;SDS011;9765;52.354;20.884;2022-08-01T08:41:49;3.83;;;1.70;;
19262;SDS011;9765;52.354;20.884;2022-08-01T08:44:17;69.20;;;4.33;;
19262;SDS011;9765;52.354;20.884;2022-08-01T08:46:48;3.83;;;1.50;;
19262;SDS011;9765;52.354;20.884;2022-08-01T08:49:18;4.93;;;1.30;;
19262;SDS011;9765;52.354;20.884;2022-08-01T08:51:47;3.10;;;1.50;;
19262;SDS011;9765;52.354;20.884;2022-08-01T08:54:18;3.70;;;1.47;;
19262;SDS011;9765;52.354;20.884;2022-08-01T08:56:46;5.77;;;1.47;;
19262;SDS011;9765;52.354;20.884;2022-08-01T08:59:13;29.60;;;3.20;;
19262;SDS011;9765;52.354;20.884;2022-08-01T09:01:40;2.43;;;1.30;;
19262;SDS011;9765;52.354;20.884;2022-08-01T09:04:08;4.77;;;1.40;;
19262;SDS011;9765;52.354;20.884;2022-08-01T09:06:36;10.90;;;1.87;;
19262;SDS011;9765;52.354;20.884;2022-08-01T09:09:04;3.57;;;1.10;;
19262;SDS011;9765;52.354;20.884;2022-08-01T09:11:31;2.50;;;1.23;;
19262;SDS011;9765;52.354;20.884;2022-08-01T09:14:03;4.63;;;1.40;;
19262;SDS011;9765;52.354;20.884;2022-08-01T09:16:31;5.03;;;1.20;;
19262;SDS011;9765;52.354;20.884;2022-08-01T09:19:06;1.57;;;1.20;;
19262;SDS011;9765;52.354;20.884;2022-08-01T09:21:36;1.93;;;1.20;;
19262;SDS011;9765;52.354;20.884;2022-08-01T09:24:03;5.97;;;1.00;;
19262;SDS011;9765;52.354;20.884;2022-08-01T09:26:39;4.43;;;1.10;;
19262;SDS011;9765;52.354;20.884;2022-08-01T09:29:06;2.40;;;1.10;;
19262;SDS011;9765;52.354;20.884;2022-08-01T09:31:39;2.43;;;1.20;;
19262;SDS011;9765;52.354;20.884;2022-08-01T09:34:08;2.63;;;1.40;;
19262;SDS011;9765;52.354;20.884;2022-08-01T09:36:46;1.97;;;1.00;;
19262;SDS011;9765;52.354;20.884;2022-08-01T09:39:16;3.60;;;1.03;;
19262;SDS011;9765;52.354;20.884;2022-08-01T09:41:44;4.60;;;1.30;;
19262;SDS011;9765;52.354;20.884;2022-08-01T09:44:11;7.20;;;1.40;;
19262;SDS011;9765;52.354;20.884;2022-08-01T09:46:45;7.03;;;1.47;;
19262;SDS011;9765;52.354;20.884;2022-08-01T09:49:16;2.90;;;1.20;;
19262;SDS011;9765;52.354;20.884;2022-08-01T09:51:53;4.03;;;1.20;;
19262;SDS011;9765;52.354;20.884;2022-08-01T09:54:27;1.87;;;1.00;;
19262;SDS011;9765;52.354;20.884;2022-08-01T09:56:55;3.30;;;1.30;;
19262;SDS011;9765;52.354;20.884;2022-08-01T09:59:35;3.77;;;1.00;;
19262;SDS011;9765;52.354;20.884;2022-08-01T10:02:02;8.50;;;1.40;;
19262;SDS011;9765;52.354;20.884;2022-08-01T10:04:30;5.32;;;1.20;;
19262;SDS011;9765;52.354;20.884;2022-08-01T10:07:03;5.60;;;1.30;;
19262;SDS011;9765;52.354;20.884;2022-08-01T10:09:32;8.03;;;1.20;;
19262;SDS011;9765;52.354;20.884;2022-08-01T10:12:00;5.15;;;1.15;;
19262;SDS011;9765;52.354;20.884;2022-08-01T10:14:27;2.57;;;1.10;;
19262;SDS011;9765;52.354;20.884;2022-08-01T10:16:56;3.20;;;1.10;;
19262;SDS011;9765;52.354;20.884;2022-08-01T10:19:25;4.03;;;1.30;;
19262;SDS011;9765;52.354;20.884;2022-08-01T10:21:54;6.22;;;1.10;;
19262;SDS011;9765;52.354;20.884;2022-08-01T10:24:21;3.33;;;1.27;;
19262;SDS011;9765;52.354;20.884;2022-08-01T10:26:50;2.17;;;1.20;;
19262;SDS011;9765;52.354;20.884;2022-08-01T10:29:20;4.20;;;1.50;;
19262;SDS011;9765;52.354;20.884;2022-08-01T10:31:48;3.15;;;1.17;;
19262;SDS011;9765;52.354;20.884;2022-08-01T10:34:15;2.63;;;1.38;;
19262;SDS011;9765;52.354;20.884;2022-08-01T10:36:45;4.20;;;1.48;;
19262;SDS011;9765;52.354;20.884;2022-08-01T10:39:14;2.53;;;1.40;;
19262;SDS011;9765;52.354;20.884;2022-08-01T10:41:43;8.40;;;1.73;;
19262;SDS011;9765;52.354;20.884;2022-08-01T10:44:11;5.47;;;1.50;;
19262;SDS011;9765;52.354;20.884;2022-08-01T10:46:38;2.60;;;1.30;;
19262;SDS011;9765;52.354;20.884;2022-08-01T10:49:10;2.10;;;1.40;;
19262;SDS011;9765;52.354;20.884;2022-08-01T10:51:39;5.38;;;1.13;;
19262;SDS011;9765;52.354;20.884;2022-08-01T10:54:08;4.63;;;1.20;;
19262;SDS011;9765;52.354;20.884;2022-08-01T10:56:42;6.77;;;1.40;;
19262;SDS011;9765;52.354;20.884;2022-08-01T10:59:12;3.83;;;1.23;;
19262;SDS011;9765;52.354;20.884;2022-08-01T11:01:41;28.93;;;2.30;;
19262;SDS011;9765;52.354;20.884;2022-08-01T11:04:08;5.53;;;1.60;;
19262;SDS011;9765;52.354;20.884;2022-08-01T11:06:41;1.83;;;1.30;;
19262;SDS011;9765;52.354;20.884;2022-08-01T11:09:29;4.43;;;1.20;;
19262;SDS011;9765;52.354;20.884;2022-08-01T11:12:02;3.80;;;1.55;;
19262;SDS011;9765;52.354;20.884;2022-08-01T11:14:33;5.30;;;1.20;;
19262;SDS011;9765;52.354;20.884;2022-08-01T11:17:30;2.88;;;1.35;;
19262;SDS011;9765;52.354;20.884;2022-08-01T11:20:08;3.55;;;1.30;;
19262;SDS011;9765;52.354;20.884;2022-08-01T11:26:06;4.55;;;1.20;;
19262;SDS011;9765;52.354;20.884;2022-08-01T11:28:35;4.60;;;1.02;;
19262;SDS011;9765;52.354;20.884;2022-08-01T11:33:51;5.00;;;1.40;;
19262;SDS011;9765;52.354;20.884;2022-08-01T11:36:18;3.65;;;1.50;;
19262;SDS011;9765;52.354;20.884;2022-08-01T11:38:46;4.75;;;1.30;;
19262;SDS011;9765;52.354;20.884;2022-08-01T11:41:15;4.43;;;1.23;;
19262;SDS011;9765;52.354;20.884;2022-08-01T11:43:56;2.20;;;1.10;;
19262;SDS011;9765;52.354;20.884;2022-08-01T11:49:24;2.57;;;1.27;;
19262;SDS011;9765;52.354;20.884;2022-08-01T11:51:59;7.28;;;1.30;;
19262;SDS011;9765;52.354;20.884;2022-08-01T11:54:28;4.18;;;1.30;;
19262;SDS011;9765;52.354;20.884;2022-08-01T11:56:56;3.90;;;1.50;;
19262;SDS011;9765;52.354;20.884;2022-08-01T11:59:25;6.30;;;1.30;;
19262;SDS011;9765;52.354;20.884;2022-08-01T12:01:52;4.28;;;1.40;;
19262;SDS011;9765;52.354;20.884;2022-08-01T12:04:19;4.22;;;1.40;;
19262;SDS011;9765;52.354;20.884;2022-08-01T12:06:46;5.47;;;1.33;;
19262;SDS011;9765;52.354;20.884;2022-08-01T12:09:17;4.93;;;1.42;;
19262;SDS011;9765;52.354;20.884;2022-08-01T12:11:45;2.47;;;1.33;;
19262;SDS011;9765;52.354;20.884;2022-08-01T12:14:15;4.82;;;1.23;;
19262;SDS011;9765;52.354;20.884;2022-08-01T12:16:49;3.75;;;1.50;;
19262;SDS011;9765;52.354;20.884;2022-08-01T12:19:18;4.05;;;1.10;;
19262;SDS011;9765;52.354;20.884;2022-08-01T12:24:35;4.20;;;1.20;;
19262;SDS011;9765;52.354;20.884;2022-08-01T12:27:03;2.42;;;1.35;;
19262;SDS011;9765;52.354;20.884;2022-08-01T12:29:31;2.65;;;1.30;;
19262;SDS011;9765;52.354;20.884;2022-08-01T12:32:04;1.75;;;1.15;;
19262;SDS011;9765;52.354;20.884;2022-08-01T12:34:47;3.17;;;1.13;;
19262;SDS011;9765;52.354;20.884;2022-08-01T12:37:14;5.35;;;1.50;;
19262;SDS011;9765;52.354;20.884;2022-08-01T12:39:42;5.95;;;1.42;;
19262;SDS011;9765;52.354;20.884;2022-08-01T12:42:10;5.72;;;1.52;;
19262;SDS011;9765;52.354;20.884;2022-08-01T12:44:38;5.68;;;1.50;;
19262;SDS011;9765;52.354;20.884;2022-08-01T12:47:07;4.32;;;1.48;;
19262;SDS011;9765;52.354;20.884;2022-08-01T12:49:35;4.33;;;1.60;;
19262;SDS011;9765;52.354;20.884;2022-08-01T12:52:03;5.05;;;1.30;;
19262;SDS011;9765;52.354;20.884;2022-08-01T12:54:30;6.65;;;1.73;;
19262;SDS011;9765;52.354;20.884;2022-08-01T12:56:57;3.85;;;1.50;;
19262;SDS011;9765;52.354;20.884;2022-08-01T12:59:24;2.20;;;1.45;;
19262;SDS011;9765;52.354;20.884;2022-08-01T13:01:54;5.03;;;1.77;;
19262;SDS011;9765;52.354;20.884;2022-08-01T13:04:22;4.03;;;1.40;;
19262;SDS011;9765;52.354;20.884;2022-08-01T13:06:52;5.30;;;1.48;;
19262;SDS011;9765;52.354;20.884;2022-08-01T13:09:19;5.57;;;1.92;;
19262;SDS011;9765;52.354;20.884;2022-08-01T13:11:46;18.95;;;2.38;;
19262;SDS011;9765;52.354;20.884;2022-08-01T13:14:25;3.63;;;1.33;;
19262;SDS011;9765;52.354;20.884;2022-08-01T13:16:52;2.60;;;1.50;;
19262;SDS011;9765;52.354;20.884;2022-08-01T13:19:19;4.50;;;1.83;;
19262;SDS011;9765;52.354;20.884;2022-08-01T13:21:57;4.78;;;1.50;;
19262;SDS011;9765;52.354;20.884;2022-08-01T13:24:24;7.17;;;1.70;;
19262;SDS011;9765;52.354;20.884;2022-08-01T13:26:53;6.03;;;1.77;;
19262;SDS011;9765;52.354;20.884;2022-08-01T13:29:29;3.27;;;1.30;;
19262;SDS011;9765;52.354;20.884;2022-08-01T13:31:57;5.00;;;1.70;;
19262;SDS011;9765;52.354;20.884;2022-08-01T13:34:32;9.63;;;1.90;;
19262;SDS011;9765;52.354;20.884;2022-08-01T13:37:01;3.67;;;2.13;;
19262;SDS011;9765;52.354;20.884;2022-08-01T13:39:28;7.13;;;2.05;;
19262;SDS011;9765;52.354;20.884;2022-08-01T13:42:09;4.53;;;2.03;;
19262;SDS011;9765;52.354;20.884;2022-08-01T13:44:36;4.30;;;2.13;;
19262;SDS011;9765;52.354;20.884;2022-08-01T13:47:03;4.10;;;2.33;;
19262;SDS011;9765;52.354;20.884;2022-08-01T13:49:30;4.07;;;2.00;;
19262;SDS011;9765;52.354;20.884;2022-08-01T13:51:57;9.17;;;2.17;;
19262;SDS011;9765;52.354;20.884;2022-08-01T13:54:26;6.27;;;2.30;;
19262;SDS011;9765;52.354;20.884;2022-08-01T13:56:53;5.33;;;2.33;;
19262;SDS011;9765;52.354;20.884;2022-08-01T13:59:20;6.20;;;2.10;;
19262;SDS011;9765;52.354;20.884;2022-08-01T14:01:47;7.45;;;2.40;;
19262;SDS011;9765;52.354;20.884;2022-08-01T14:04:14;6.07;;;2.20;;
19262;SDS011;9765;52.354;20.884;2022-08-01T14:06:41;9.17;;;2.60;;
19262;SDS011;9765;52.354;20.884;2022-08-01T14:09:07;3.53;;;2.50;;
19262;SDS011;9765;52.354;20.884;2022-08-01T14:11:36;5.07;;;2.28;;
19262;SDS011;9765;52.354;20.884;2022-08-01T14:14:02;4.30;;;2.00;;
19262;SDS011;9765;52.354;20.884;2022-08-01T14:16:29;5.27;;;2.30;;
19262;SDS011;9765;52.354;20.884;2022-08-01T14:18:56;4.20;;;2.40;;
19262;SDS011;9765;52.354;20.884;2022-08-01T14:21:23;9.57;;;2.77;;
19262;SDS011;9765;52.354;20.884;2022-08-01T14:23:50;3.00;;;2.20;;
19262;SDS011;9765;52.354;20.884;2022-08-01T14:26:16;6.50;;;2.80;;
19262;SDS011;9765;52.354;20.884;2022-08-01T14:28:44;5.97;;;2.50;;
19262;SDS011;9765;52.354;20.884;2022-08-01T14:31:11;8.80;;;2.60;;
19262;SDS011;9765;52.354;20.884;2022-08-01T14:33:38;4.03;;;2.43;;
19262;SDS011;9765;52.354;20.884;2022-08-01T14:36:05;6.67;;;2.67;;
19262;SDS011;9765;52.354;20.884;2022-08-01T14:38:31;4.93;;;2.40;;
19262;SDS011;9765;52.354;20.884;2022-08-01T14:40:58;9.03;;;2.50;;
19262;SDS011;9765;52.354;20.884;2022-08-01T14:43:25;8.03;;;2.33;;
19262;SDS011;9765;52.354;20.884;2022-08-01T14:45:53;5.10;;;2.50;;
19262;SDS011;9765;52.354;20.884;2022-08-01T14:48:20;4.57;;;2.50;;
19262;SDS011;9765;52.354;20.884;2022-08-01T14:50:47;5.33;;;2.33;;
19262;SDS011;9765;52.354;20.884;2022-08-01T14:53:13;5.27;;;2.40;;
19262;SDS011;9765;52.354;20.884;2022-08-01T14:55:40;4.27;;;2.37;;
19262;SDS011;9765;52.354;20.884;2022-08-01T14:58:07;10.60;;;2.50;;
19262;SDS011;9765;52.354;20.884;2022-08-01T15:00:34;6.90;;;2.37;;
19262;SDS011;9765;52.354;20.884;2022-08-01T15:03:02;4.57;;;2.47;;
19262;SDS011;9765;52.354;20.884;2022-08-01T15:05:29;3.97;;;2.80;;
19262;SDS011;9765;52.354;20.884;2022-08-01T15:07:57;9.83;;;2.70;;
19262;SDS011;9765;52.354;20.884;2022-08-01T15:10:24;6.23;;;2.37;;
19262;SDS011;9765;52.354;20.884;2022-08-01T15:12:51;6.20;;;2.60;;
19262;SDS011;9765;52.354;20.884;2022-08-01T15:15:18;5.03;;;2.70;;
19262;SDS011;9765;52.354;20.884;2022-08-01T15:17:46;5.40;;;2.37;;
19262;SDS011;9765;52.354;20.884;2022-08-01T15:20:14;4.23;;;2.60;;
19262;SDS011;9765;52.354;20.884;2022-08-01T15:22:41;5.93;;;2.40;;
19262;SDS011;9765;52.354;20.884;2022-08-01T15:25:07;4.70;;;2.50;;
19262;SDS011;9765;52.354;20.884;2022-08-01T15:27:34;4.37;;;2.90;;
19262;SDS011;9765;52.354;20.884;2022-08-01T15:30:01;4.47;;;2.37;;
19262;SDS011;9765;52.354;20.884;2022-08-01T15:32:29;9.47;;;2.70;;
19262;SDS011;9765;52.354;20.884;2022-08-01T15:34:56;4.27;;;2.60;;
19262;SDS011;9765;52.354;20.884;2022-08-01T15:37:24;2.97;;;2.37;;
19262;SDS011;9765;52.354;20.884;2022-08-01T15:39:50;4.83;;;2.33;;
19262;SDS011;9765;52.354;20.884;2022-08-01T15:42:18;4.43;;;2.20;;
19262;SDS011;9765;52.354;20.884;2022-08-01T15:44:45;3.13;;;2.20;;
19262;SDS011;9765;52.354;20.884;2022-08-01T15:47:12;4.63;;;2.17;;
19262;SDS011;9765;52.354;20.884;2022-08-01T15:49:39;3.60;;;2.30;;
19262;SDS011;9765;52.354;20.884;2022-08-01T15:52:06;6.60;;;2.60;;
19262;SDS011;9765;52.354;20.884;2022-08-01T15:54:35;3.10;;;2.10;;
19262;SDS011;9765;52.354;20.884;2022-08-01T15:57:05;7.20;;;2.37;;
19262;SDS011;9765;52.354;20.884;2022-08-01T15:59:33;6.60;;;2.40;;
19262;SDS011;9765;52.354;20.884;2022-08-01T16:01:59;6.43;;;2.67;;
19262;SDS011;9765;52.354;20.884;2022-08-01T16:04:26;7.60;;;2.27;;
19262;SDS011;9765;52.354;20.884;2022-08-01T16:06:53;6.00;;;2.30;;
19262;SDS011;9765;52.354;20.884;2022-08-01T16:09:19;4.43;;;2.27;;
19262;SDS011;9765;52.354;20.884;2022-08-01T16:11:48;3.80;;;2.40;;
19262;SDS011;9765;52.354;20.884;2022-08-01T16:14:14;5.27;;;2.40;;
19262;SDS011;9765;52.354;20.884;2022-08-01T16:16:41;7.77;;;2.40;;
19262;SDS011;9765;52.354;20.884;2022-08-01T16:19:08;5.63;;;2.47;;
19262;SDS011;9765;52.354;20.884;2022-08-01T16:21:35;10.07;;;2.50;;
19262;SDS011;9765;52.354;20.884;2022-08-01T16:24:01;12.50;;;2.93;;
19262;SDS011;9765;52.354;20.884;2022-08-01T16:26:28;5.10;;;2.40;;
19262;SDS011;9765;52.354;20.884;2022-08-01T16:28:56;10.57;;;2.30;;
19262;SDS011;9765;52.354;20.884;2022-08-01T16:31:23;12.87;;;3.00;;
19262;SDS011;9765;52.354;20.884;2022-08-01T16:33:50;4.10;;;2.33;;
19262;SDS011;9765;52.354;20.884;2022-08-01T16:36:17;5.53;;;2.30;;
19262;SDS011;9765;52.354;20.884;2022-08-01T16:38:44;4.33;;;2.63;;
19262;SDS011;9765;52.354;20.884;2022-08-01T16:41:11;6.37;;;2.80;;
19262;SDS011;9765;52.354;20.884;2022-08-01T16:43:38;6.73;;;2.40;;
19262;SDS011;9765;52.354;20.884;2022-08-01T16:46:06;6.47;;;2.43;;
19262;SDS011;9765;52.354;20.884;2022-08-01T16:48:33;6.87;;;2.43;;
19262;SDS011;9765;52.354;20.884;2022-08-01T16:51:00;3.40;;;2.13;;
19262;SDS011;9765;52.354;20.884;2022-08-01T16:53:27;4.10;;;2.53;;
19262;SDS011;9765;52.354;20.884;2022-08-01T16:55:57;5.57;;;2.57;;
19262;SDS011;9765;52.354;20.884;2022-08-01T16:58:24;6.47;;;2.57;;
19262;SDS011;9765;52.354;20.884;2022-08-01T17:00:50;4.50;;;2.60;;
19262;SDS011;9765;52.354;20.884;2022-08-01T17:03:18;6.00;;;2.70;;
19262;SDS011;9765;52.354;20.884;2022-08-01T17:05:47;9.40;;;2.73;;
19262;SDS011;9765;52.354;20.884;2022-08-01T17:08:14;6.30;;;2.40;;
19262;SDS011;9765;52.354;20.884;2022-08-01T17:10:41;5.37;;;2.20;;
19262;SDS011;9765;52.354;20.884;2022-08-01T17:13:08;6.57;;;2.37;;
19262;SDS011;9765;52.354;20.884;2022-08-01T17:15:35;3.87;;;2.37;;
19262;SDS011;9765;52.354;20.884;2022-08-01T17:18:04;5.07;;;2.60;;
19262;SDS011;9765;52.354;20.884;2022-08-01T17:20:32;8.73;;;2.47;;
19262;SDS011;9765;52.354;20.884;2022-08-01T17:22:59;4.80;;;2.60;;
19262;SDS011;9765;52.354;20.884;2022-08-01T17:25:26;5.77;;;2.57;;
19262;SDS011;9765;52.354;20.884;2022-08-01T17:27:53;9.13;;;2.27;;
19262;SDS011;9765;52.354;20.884;2022-08-01T17:30:20;3.60;;;2.60;;
19262;SDS011;9765;52.354;20.884;2022-08-01T17:32:47;4.17;;;2.50;;
19262;SDS011;9765;52.354;20.884;2022-08-01T17:35:15;5.90;;;2.57;;
19262;SDS011;9765;52.354;20.884;2022-08-01T17:37:43;8.03;;;2.60;;
19262;SDS011;9765;52.354;20.884;2022-08-01T17:40:10;4.20;;;2.90;;
19262;SDS011;9765;52.354;20.884;2022-08-01T17:42:37;5.83;;;2.50;;
19262;SDS011;9765;52.354;20.884;2022-08-01T17:45:05;25.17;;;3.20;;
19262;SDS011;9765;52.354;20.884;2022-08-01T17:47:33;6.07;;;2.57;;
19262;SDS011;9765;52.354;20.884;2022-08-01T17:50:00;5.20;;;2.13;;
19262;SDS011;9765;52.354;20.884;2022-08-01T17:52:28;3.17;;;2.50;;
